createdAt,value
2019-02-24T00:03:34.130Z,22.70
2019-02-24T00:08:40.690Z,22.70
2019-02-24T00:13:46.526Z,22.60
2019-02-24T00:18:53.251Z,22.70
2019-02-24T00:23:59.627Z,22.60
2019-02-24T00:29:06.080Z,22.60
2019-02-24T00:34:12.193Z,22.60
2019-02-24T00:39:17.970Z,22.60
2019-02-24T00:44:24.847Z,22.60
2019-02-24T00:49:31.711Z,22.60
2019-02-24T00:54:37.879Z,22.50
2019-02-24T00:59:44.478Z,22.50
2019-02-24T01:04:50.121Z,22.50
2019-02-24T01:09:56.810Z,22.50
2019-02-24T01:15:02.705Z,22.50
2019-02-24T01:20:09.021Z,22.50
2019-02-24T01:25:15.271Z,22.50
2019-02-24T01:30:21.431Z,22.40
2019-02-24T01:35:27.811Z,22.40
2019-02-24T01:40:34.517Z,22.40
2019-02-24T01:45:40.210Z,22.40
2019-02-24T01:50:46.199Z,22.40
2019-02-24T01:55:52.700Z,22.30
2019-02-24T02:00:58.969Z,22.30
2019-02-24T02:06:05.440Z,22.30
2019-02-24T02:11:11.890Z,22.30
2019-02-24T02:16:18.349Z,22.30
2019-02-24T02:21:24.910Z,22.20
2019-02-24T02:26:30.890Z,22.20
2019-02-24T02:31:37.341Z,22.20
2019-02-24T02:36:43.461Z,22.20
2019-02-24T02:41:49.189Z,22.20
2019-02-24T02:46:55.481Z,22.20
2019-02-24T02:52:01.960Z,22.20
2019-02-24T02:57:08.779Z,22.20
2019-02-24T03:02:24.064Z,22.10
2019-02-24T03:07:41.839Z,22.10
2019-02-24T03:12:48.120Z,22.10
2019-02-24T03:18:13.169Z,22.10
2019-02-24T03:23:20.650Z,22.00
2019-02-24T03:28:28.191Z,22.00
2019-02-24T03:33:33.942Z,22.00
2019-02-24T03:38:39.720Z,22.00
2019-02-24T03:43:46.276Z,22.00
2019-02-24T03:48:52.480Z,22.00
2019-02-24T03:53:58.749Z,22.00
2019-02-24T03:59:14.759Z,21.90
2019-02-24T04:04:12.501Z,21.90
2019-02-24T04:09:18.509Z,21.90
2019-02-24T04:14:24.211Z,21.90
2019-02-24T04:19:30.319Z,21.90
2019-02-24T04:24:36.322Z,21.90
2019-02-24T04:29:42.845Z,21.90
2019-02-24T04:34:49.090Z,21.90
2019-02-24T04:39:55.200Z,21.80
2019-02-24T04:45:01.191Z,21.80
2019-02-24T04:50:07.040Z,21.80
2019-02-24T04:55:13.500Z,21.80
2019-02-24T05:00:19.058Z,21.80
2019-02-24T05:05:24.844Z,21.70
2019-02-24T05:10:30.850Z,21.70
2019-02-24T05:15:37.041Z,21.70
2019-02-24T05:20:44.261Z,21.70
2019-02-24T05:26:09.150Z,21.70
2019-02-24T05:31:15.340Z,21.70
2019-02-24T05:36:21.451Z,21.70
2019-02-24T05:41:27.931Z,21.60
2019-02-24T05:46:33.739Z,21.60
2019-02-24T05:51:40.249Z,21.60
2019-02-24T05:56:46.661Z,21.60
2019-02-24T06:01:53.032Z,21.60
2019-02-24T06:06:58.770Z,21.60
2019-02-24T06:12:05.149Z,21.60
2019-02-24T06:17:11.580Z,21.50
2019-02-24T06:22:17.720Z,21.50
2019-02-24T06:27:23.480Z,21.50
2019-02-24T06:32:29.851Z,21.50
2019-02-24T06:37:36.369Z,21.50
2019-02-24T06:42:42.289Z,21.50
2019-02-24T06:47:48.670Z,21.50
2019-02-24T06:52:54.919Z,21.50
2019-02-24T06:58:00.762Z,21.40
2019-02-24T07:03:07.190Z,21.50
2019-02-24T07:08:12.880Z,21.40
2019-02-24T07:13:18.959Z,21.50
2019-02-24T07:18:25.079Z,21.50
2019-02-24T07:23:31.101Z,21.50
2019-02-24T07:28:36.914Z,21.50
2019-02-24T07:33:43.180Z,21.50
2019-02-24T07:39:09.300Z,21.40
2019-02-24T07:44:15.109Z,21.40
2019-02-24T07:49:20.939Z,21.40
2019-02-24T07:54:27.619Z,21.40
2019-02-24T07:59:33.360Z,21.50
2019-02-24T08:04:39.153Z,21.50
2019-02-24T08:09:44.921Z,21.50
2019-02-24T08:14:51.000Z,21.50
2019-02-24T08:19:57.280Z,21.50
2019-02-24T08:25:03.140Z,21.50
2019-02-24T08:30:10.110Z,21.50
2019-02-24T08:35:16.029Z,21.50
2019-02-24T08:40:23.330Z,21.50
2019-02-24T08:45:29.634Z,21.40
2019-02-24T08:50:35.590Z,21.40
2019-02-24T08:55:41.882Z,21.40
2019-02-24T09:00:50.999Z,21.50
2019-02-24T09:05:55.730Z,21.50
2019-02-24T09:11:01.410Z,21.50
2019-02-24T09:16:07.345Z,21.50
2019-02-24T09:21:13.784Z,21.50
2019-02-24T09:26:20.350Z,21.60
2019-02-24T09:31:26.419Z,21.60
2019-02-24T09:36:32.059Z,21.60
2019-02-24T09:41:37.670Z,21.60
2019-02-24T09:46:43.410Z,21.60
2019-02-24T09:51:49.929Z,21.60
2019-02-24T09:56:55.750Z,21.70
2019-02-24T10:02:02.163Z,21.60
2019-02-24T10:07:07.991Z,21.60
2019-02-24T10:12:15.170Z,21.60
2019-02-24T10:17:21.231Z,21.60
2019-02-24T10:22:27.590Z,21.70
2019-02-24T10:27:33.760Z,21.70
2019-02-24T10:32:39.640Z,21.60
2019-02-24T10:37:45.408Z,21.60
2019-02-24T10:42:51.700Z,21.70
2019-02-24T10:47:57.540Z,21.60
2019-02-24T10:53:03.627Z,21.70
2019-02-24T10:58:09.904Z,21.60
2019-02-24T11:03:16.310Z,21.60
2019-02-24T11:08:22.429Z,21.60
2019-02-24T11:13:28.553Z,21.60
2019-02-24T11:18:35.149Z,21.60
2019-02-24T11:23:41.451Z,21.60
2019-02-24T11:28:47.790Z,21.60
2019-02-24T11:33:54.179Z,21.60
2019-02-24T11:39:00.470Z,21.70
2019-02-24T11:44:07.281Z,21.70
2019-02-24T11:49:13.590Z,21.70
2019-02-24T11:54:20.339Z,21.80
2019-02-24T11:59:26.390Z,21.80
2019-02-24T12:04:33.240Z,21.80
2019-02-24T12:09:40.210Z,21.80
2019-02-24T12:14:47.530Z,21.90
2019-02-24T12:19:54.210Z,21.90
2019-02-24T12:25:00.640Z,21.90
2019-02-24T12:30:07.090Z,21.90
2019-02-24T12:35:13.371Z,22.00
2019-02-24T12:40:19.140Z,21.70
2019-02-24T12:45:25.501Z,21.40
2019-02-24T12:50:32.140Z,21.40
2019-02-24T12:55:38.474Z,21.40
2019-02-24T13:00:44.610Z,21.50
2019-02-24T13:05:50.820Z,21.60
2019-02-24T13:10:57.130Z,21.50
2019-02-24T13:16:03.580Z,21.50
2019-02-24T13:21:09.820Z,21.50
2019-02-24T13:26:15.660Z,21.50
2019-02-24T13:31:22.102Z,21.60
2019-02-24T13:36:28.460Z,21.60
2019-02-24T13:41:34.310Z,21.70
2019-02-24T13:46:40.196Z,21.80
2019-02-24T13:51:45.941Z,21.80
2019-02-24T13:56:52.644Z,21.90
2019-02-24T14:01:58.520Z,21.90
2019-02-24T14:07:04.860Z,22.00
2019-02-24T14:12:11.253Z,22.00
2019-02-24T14:17:17.780Z,22.10
2019-02-24T14:22:24.010Z,22.20
2019-02-24T14:27:30.410Z,22.20
2019-02-24T14:32:37.060Z,22.20
2019-02-24T14:37:42.740Z,22.30
2019-02-24T14:42:48.910Z,22.30
2019-02-24T14:47:55.379Z,22.30
2019-02-24T14:53:01.809Z,22.40
2019-02-24T14:58:07.571Z,22.40
2019-02-24T15:03:14.735Z,22.40
2019-02-24T15:08:20.569Z,22.40
2019-02-24T15:13:26.139Z,22.40
2019-02-24T15:18:32.270Z,22.50
2019-02-24T15:23:38.601Z,22.50
2019-02-24T15:28:44.890Z,22.50
2019-02-24T15:33:50.880Z,22.50
2019-02-24T15:38:56.639Z,22.50
2019-02-24T15:44:03.145Z,22.60
2019-02-24T15:49:09.870Z,22.60
2019-02-24T15:54:17.650Z,22.60
2019-02-24T15:59:23.930Z,22.70
2019-02-24T16:04:30.259Z,22.70
2019-02-24T16:09:36.929Z,22.70
2019-02-24T16:14:42.879Z,22.70
2019-02-24T16:19:49.509Z,22.80
2019-02-24T16:24:55.850Z,22.80
2019-02-24T16:30:02.121Z,22.80
2019-02-24T16:35:09.229Z,22.90
2019-02-24T16:40:17.120Z,22.80
2019-02-24T16:45:23.550Z,22.80
2019-02-24T16:50:31.130Z,22.80
2019-02-24T16:55:38.190Z,22.80
2019-02-24T17:00:44.469Z,22.80
2019-02-24T17:05:51.571Z,22.70
2019-02-24T17:11:06.720Z,22.80
2019-02-24T17:16:11.765Z,22.80
2019-02-24T17:21:18.806Z,22.80
2019-02-24T17:26:25.128Z,22.80
2019-02-24T17:31:32.227Z,22.80
2019-02-24T17:36:38.500Z,22.80
2019-02-24T17:41:44.476Z,22.80
2019-02-24T17:46:50.956Z,22.90
2019-02-24T17:51:58.018Z,22.80
2019-02-24T17:57:05.387Z,22.90
2019-02-24T18:02:11.276Z,22.80
2019-02-24T18:07:17.336Z,22.80
2019-02-24T18:12:23.756Z,22.80
2019-02-24T18:17:29.976Z,22.80
2019-02-24T18:22:36.208Z,22.80
2019-02-24T18:27:42.607Z,22.70
2019-02-24T18:32:49.016Z,22.70
2019-02-24T18:37:55.726Z,22.70
2019-02-24T18:43:02.169Z,22.70
2019-02-24T18:48:08.306Z,22.70
2019-02-24T18:53:15.067Z,22.70
2019-02-24T18:58:21.205Z,22.70
2019-02-24T19:03:27.236Z,22.60
2019-02-24T19:08:32.928Z,22.60
2019-02-24T19:13:39.277Z,22.60
2019-02-24T19:18:45.346Z,22.60
2019-02-24T19:23:51.423Z,22.60
2019-02-24T19:28:59.777Z,22.60
2019-02-24T19:34:07.061Z,22.60
2019-02-24T19:39:16.392Z,22.60
2019-02-24T19:44:22.937Z,22.60
2019-02-24T19:49:29.196Z,22.60
2019-02-24T19:54:35.526Z,22.60
2019-02-24T19:59:41.200Z,22.60
2019-02-24T20:04:47.057Z,22.60
2019-02-24T20:09:53.401Z,22.60
2019-02-24T20:14:59.886Z,22.60
2019-02-24T20:20:06.108Z,22.60
2019-02-24T20:25:15.197Z,22.50
2019-02-24T20:30:23.879Z,22.60
2019-02-24T20:35:31.586Z,22.50
2019-02-24T20:40:39.213Z,22.60
2019-02-24T20:45:46.437Z,22.50
2019-02-24T20:50:52.308Z,22.50
2019-02-24T20:55:58.336Z,22.50
2019-02-24T21:01:06.336Z,22.50
2019-02-24T21:06:11.745Z,22.50
2019-02-24T21:11:17.577Z,22.50
2019-02-24T21:16:25.867Z,22.50
2019-02-24T21:21:31.597Z,22.40
2019-02-24T21:26:37.606Z,22.40
2019-02-24T21:31:44.408Z,22.40
2019-02-24T21:36:50.868Z,22.40
2019-02-24T21:41:57.074Z,22.30
2019-02-24T21:47:02.957Z,22.30
2019-02-24T21:52:09.309Z,22.30
2019-02-24T21:57:15.706Z,22.20
2019-02-24T22:02:21.566Z,22.30
2019-02-24T22:07:28.208Z,22.20
2019-02-24T22:12:34.396Z,22.20
2019-02-24T22:17:40.356Z,22.20
2019-02-24T22:22:47.069Z,22.20
2019-02-24T22:27:53.584Z,22.20
2019-02-24T22:32:59.435Z,22.20
2019-02-24T22:38:06.987Z,22.20
2019-02-24T22:43:12.786Z,22.20
2019-02-24T22:48:19.796Z,22.20
2019-02-24T22:53:25.855Z,22.10
2019-02-24T22:58:33.438Z,22.10
2019-02-24T23:03:41.466Z,22.10
2019-02-24T23:08:48.246Z,22.10
2019-02-24T23:13:54.596Z,22.10
2019-02-24T23:19:01.847Z,22.10
2019-02-24T23:24:08.167Z,22.00
2019-02-24T23:29:15.176Z,22.00
2019-02-24T23:34:21.177Z,22.00
2019-02-24T23:39:26.806Z,22.00
2019-02-24T23:44:32.436Z,22.00
2019-02-24T23:49:38.686Z,22.00
2019-02-24T23:54:44.846Z,21.90
2019-02-24T23:59:51.196Z,21.90
